sensor_id;sensor_type;location;lat;lon;timestamp;P1;durP1;ratioP1;P2;durP2;ratioP2
16784;SDS011;8509;52.178;5.404;2023-09-30T00:00:26;3.88;;;1.83;;
16784;SDS011;8509;52.178;5.404;2023-09-30T00:02:52;4.45;;;2.25;;
16784;SDS011;8509;52.178;5.404;2023-09-30T00:05:17;8.45;;;1.92;;
16784;SDS011;8509;52.178;5.404;2023-09-30T00:07:46;5.45;;;1.70;;
16784;SDS011;8509;52.178;5.404;2023-09-30T00:10:12;3.97;;;1.60;;
16784;SDS011;8509;52.178;5.404;2023-09-30T00:12:37;8.35;;;2.20;;
16784;SDS011;8509;52.178;5.404;2023-09-30T00:15:03;6.60;;;1.98;;
16784;SDS011;8509;52.178;5.404;2023-09-30T00:17:30;4.05;;;2.10;;
16784;SDS011;8509;52.178;5.404;2023-09-30T00:19:55;7.15;;;1.88;;
16784;SDS011;8509;52.178;5.404;2023-09-30T00:22:21;7.15;;;1.92;;
16784;SDS011;8509;52.178;5.404;2023-09-30T00:24:47;5.93;;;1.90;;
16784;SDS011;8509;52.178;5.404;2023-09-30T00:27:13;2.25;;;1.13;;
16784;SDS011;8509;52.178;5.404;2023-09-30T00:29:39;4.95;;;1.85;;
16784;SDS011;8509;52.178;5.404;2023-09-30T00:32:04;8.02;;;2.55;;
16784;SDS011;8509;52.178;5.404;2023-09-30T00:34:34;4.05;;;1.90;;
16784;SDS011;8509;52.178;5.404;2023-09-30T00:37:00;8.25;;;2.05;;
16784;SDS011;8509;52.178;5.404;2023-09-30T00:39:26;5.55;;;1.85;;
16784;SDS011;8509;52.178;5.404;2023-09-30T00:41:58;3.58;;;1.83;;
16784;SDS011;8509;52.178;5.404;2023-09-30T00:44:27;8.48;;;2.28;;
16784;SDS011;8509;52.178;5.404;2023-09-30T00:46:53;2.60;;;1.52;;
16784;SDS011;8509;52.178;5.404;2023-09-30T00:49:21;5.82;;;1.63;;
16784;SDS011;8509;52.178;5.404;2023-09-30T00:51:48;7.72;;;1.83;;
16784;SDS011;8509;52.178;5.404;2023-09-30T00:54:14;5.88;;;1.67;;
16784;SDS011;8509;52.178;5.404;2023-09-30T00:56:45;5.65;;;2.30;;
16784;SDS011;8509;52.178;5.404;2023-09-30T00:59:14;5.90;;;2.13;;
16784;SDS011;8509;52.178;5.404;2023-09-30T01:01:44;2.78;;;1.88;;
16784;SDS011;8509;52.178;5.404;2023-09-30T01:04:10;8.13;;;2.70;;
16784;SDS011;8509;52.178;5.404;2023-09-30T01:06:37;4.22;;;2.00;;
16784;SDS011;8509;52.178;5.404;2023-09-30T01:09:03;6.28;;;3.67;;
16784;SDS011;8509;52.178;5.404;2023-09-30T01:11:29;6.60;;;2.95;;
16784;SDS011;8509;52.178;5.404;2023-09-30T01:13:55;4.40;;;1.98;;
16784;SDS011;8509;52.178;5.404;2023-09-30T01:16:22;6.55;;;2.90;;
16784;SDS011;8509;52.178;5.404;2023-09-30T01:18:48;5.63;;;3.05;;
16784;SDS011;8509;52.178;5.404;2023-09-30T01:21:18;6.88;;;2.67;;
16784;SDS011;8509;52.178;5.404;2023-09-30T01:23:43;5.38;;;2.22;;
16784;SDS011;8509;52.178;5.404;2023-09-30T01:26:11;4.47;;;2.25;;
16784;SDS011;8509;52.178;5.404;2023-09-30T01:28:38;9.82;;;2.80;;
16784;SDS011;8509;52.178;5.404;2023-09-30T01:31:04;2.72;;;2.17;;
16784;SDS011;8509;52.178;5.404;2023-09-30T01:33:30;5.07;;;2.38;;
16784;SDS011;8509;52.178;5.404;2023-09-30T01:35:57;4.05;;;2.28;;
16784;SDS011;8509;52.178;5.404;2023-09-30T01:38:23;8.00;;;2.22;;
16784;SDS011;8509;52.178;5.404;2023-09-30T01:40:49;5.22;;;2.08;;
16784;SDS011;8509;52.178;5.404;2023-09-30T01:43:14;5.63;;;2.50;;
16784;SDS011;8509;52.178;5.404;2023-09-30T01:45:40;7.13;;;2.50;;
16784;SDS011;8509;52.178;5.404;2023-09-30T01:48:07;4.35;;;2.05;;
16784;SDS011;8509;52.178;5.404;2023-09-30T01:50:36;7.45;;;2.50;;
16784;SDS011;8509;52.178;5.404;2023-09-30T01:53:03;6.82;;;2.25;;
16784;SDS011;8509;52.178;5.404;2023-09-30T01:55:31;5.53;;;2.40;;
16784;SDS011;8509;52.178;5.404;2023-09-30T01:57:57;4.55;;;2.20;;
16784;SDS011;8509;52.178;5.404;2023-09-30T02:00:23;5.70;;;2.20;;
16784;SDS011;8509;52.178;5.404;2023-09-30T02:02:49;6.20;;;2.65;;
16784;SDS011;8509;52.178;5.404;2023-09-30T02:05:14;9.02;;;3.47;;
16784;SDS011;8509;52.178;5.404;2023-09-30T02:07:41;4.18;;;2.05;;
16784;SDS011;8509;52.178;5.404;2023-09-30T02:10:06;4.82;;;2.38;;
16784;SDS011;8509;52.178;5.404;2023-09-30T02:12:33;7.57;;;2.15;;
16784;SDS011;8509;52.178;5.404;2023-09-30T02:14:58;5.13;;;2.75;;
16784;SDS011;8509;52.178;5.404;2023-09-30T02:17:24;5.10;;;2.72;;
16784;SDS011;8509;52.178;5.404;2023-09-30T02:19:50;5.65;;;1.90;;
16784;SDS011;8509;52.178;5.404;2023-09-30T02:22:15;6.30;;;2.92;;
16784;SDS011;8509;52.178;5.404;2023-09-30T02:24:41;4.75;;;2.33;;
16784;SDS011;8509;52.178;5.404;2023-09-30T02:27:07;6.10;;;2.38;;
16784;SDS011;8509;52.178;5.404;2023-09-30T02:29:33;5.80;;;2.63;;
16784;SDS011;8509;52.178;5.404;2023-09-30T02:31:58;5.13;;;1.98;;
16784;SDS011;8509;52.178;5.404;2023-09-30T02:34:24;11.82;;;2.50;;
16784;SDS011;8509;52.178;5.404;2023-09-30T02:36:50;4.53;;;2.28;;
16784;SDS011;8509;52.178;5.404;2023-09-30T02:39:16;7.63;;;2.95;;
16784;SDS011;8509;52.178;5.404;2023-09-30T02:41:42;7.20;;;3.38;;
16784;SDS011;8509;52.178;5.404;2023-09-30T02:44:08;6.15;;;2.65;;
16784;SDS011;8509;52.178;5.404;2023-09-30T02:46:35;13.25;;;3.33;;
16784;SDS011;8509;52.178;5.404;2023-09-30T02:49:02;5.35;;;3.03;;
16784;SDS011;8509;52.178;5.404;2023-09-30T02:51:28;5.32;;;3.00;;
16784;SDS011;8509;52.178;5.404;2023-09-30T02:53:55;6.00;;;2.97;;
16784;SDS011;8509;52.178;5.404;2023-09-30T02:56:21;5.20;;;2.83;;
16784;SDS011;8509;52.178;5.404;2023-09-30T02:58:49;9.68;;;3.58;;
16784;SDS011;8509;52.178;5.404;2023-09-30T03:01:17;7.65;;;3.75;;
16784;SDS011;8509;52.178;5.404;2023-09-30T03:03:44;5.57;;;3.28;;
16784;SDS011;8509;52.178;5.404;2023-09-30T03:06:10;9.43;;;3.10;;
16784;SDS011;8509;52.178;5.404;2023-09-30T03:08:36;6.20;;;3.17;;
16784;SDS011;8509;52.178;5.404;2023-09-30T03:11:02;6.78;;;3.08;;
16784;SDS011;8509;52.178;5.404;2023-09-30T03:13:29;7.07;;;3.58;;
16784;SDS011;8509;52.178;5.404;2023-09-30T03:15:55;9.85;;;4.25;;
16784;SDS011;8509;52.178;5.404;2023-09-30T03:18:27;7.00;;;3.58;;
16784;SDS011;8509;52.178;5.404;2023-09-30T03:20:58;8.15;;;3.53;;
16784;SDS011;8509;52.178;5.404;2023-09-30T03:23:34;7.72;;;3.92;;
16784;SDS011;8509;52.178;5.404;2023-09-30T03:26:00;7.35;;;4.20;;
16784;SDS011;8509;52.178;5.404;2023-09-30T03:28:26;8.05;;;4.07;;
16784;SDS011;8509;52.178;5.404;2023-09-30T03:30:52;10.35;;;3.25;;
16784;SDS011;8509;52.178;5.404;2023-09-30T03:33:18;7.53;;;3.55;;
16784;SDS011;8509;52.178;5.404;2023-09-30T03:35:44;11.10;;;4.43;;
16784;SDS011;8509;52.178;5.404;2023-09-30T03:38:10;11.13;;;4.05;;
16784;SDS011;8509;52.178;5.404;2023-09-30T03:40:37;7.30;;;3.90;;
16784;SDS011;8509;52.178;5.404;2023-09-30T03:43:04;10.50;;;5.18;;
16784;SDS011;8509;52.178;5.404;2023-09-30T03:45:30;5.93;;;3.72;;
16784;SDS011;8509;52.178;5.404;2023-09-30T03:48:02;5.65;;;3.28;;
16784;SDS011;8509;52.178;5.404;2023-09-30T03:50:28;10.23;;;3.55;;
16784;SDS011;8509;52.178;5.404;2023-09-30T03:53:01;10.82;;;3.70;;
16784;SDS011;8509;52.178;5.404;2023-09-30T03:55:27;8.02;;;4.28;;
16784;SDS011;8509;52.178;5.404;2023-09-30T03:57:54;8.45;;;3.20;;
16784;SDS011;8509;52.178;5.404;2023-09-30T04:00:20;13.85;;;4.88;;
16784;SDS011;8509;52.178;5.404;2023-09-30T04:02:46;8.32;;;3.67;;
16784;SDS011;8509;52.178;5.404;2023-09-30T04:05:14;13.15;;;4.38;;
16784;SDS011;8509;52.178;5.404;2023-09-30T04:07:42;7.43;;;3.92;;
16784;SDS011;8509;52.178;5.404;2023-09-30T04:10:08;7.28;;;3.78;;
16784;SDS011;8509;52.178;5.404;2023-09-30T04:12:35;9.32;;;3.50;;
16784;SDS011;8509;52.178;5.404;2023-09-30T04:15:01;7.10;;;4.10;;
16784;SDS011;8509;52.178;5.404;2023-09-30T04:17:28;18.95;;;6.07;;
16784;SDS011;8509;52.178;5.404;2023-09-30T04:19:54;8.95;;;3.72;;
16784;SDS011;8509;52.178;5.404;2023-09-30T04:22:20;10.02;;;4.32;;
16784;SDS011;8509;52.178;5.404;2023-09-30T04:24:50;13.25;;;4.13;;
16784;SDS011;8509;52.178;5.404;2023-09-30T04:27:15;8.23;;;4.88;;
16784;SDS011;8509;52.178;5.404;2023-09-30T04:29:43;8.77;;;6.05;;
16784;SDS011;8509;52.178;5.404;2023-09-30T04:32:08;9.38;;;3.97;;
16784;SDS011;8509;52.178;5.404;2023-09-30T04:34:35;8.40;;;4.30;;
16784;SDS011;8509;52.178;5.404;2023-09-30T04:37:00;8.73;;;4.57;;
16784;SDS011;8509;52.178;5.404;2023-09-30T04:39:27;10.15;;;4.78;;
16784;SDS011;8509;52.178;5.404;2023-09-30T04:41:52;11.02;;;5.57;;
16784;SDS011;8509;52.178;5.404;2023-09-30T04:44:20;11.15;;;4.70;;
16784;SDS011;8509;52.178;5.404;2023-09-30T04:46:47;8.13;;;5.47;;
16784;SDS011;8509;52.178;5.404;2023-09-30T04:49:15;6.95;;;3.97;;
16784;SDS011;8509;52.178;5.404;2023-09-30T04:51:42;7.30;;;3.90;;
16784;SDS011;8509;52.178;5.404;2023-09-30T04:54:08;7.78;;;4.60;;
16784;SDS011;8509;52.178;5.404;2023-09-30T04:56:36;12.02;;;5.28;;
16784;SDS011;8509;52.178;5.404;2023-09-30T04:59:03;9.98;;;5.57;;
16784;SDS011;8509;52.178;5.404;2023-09-30T05:01:29;10.00;;;4.93;;
16784;SDS011;8509;52.178;5.404;2023-09-30T05:03:54;11.75;;;4.95;;
16784;SDS011;8509;52.178;5.404;2023-09-30T05:06:20;9.45;;;5.05;;
16784;SDS011;8509;52.178;5.404;2023-09-30T05:08:46;7.63;;;4.13;;
16784;SDS011;8509;52.178;5.404;2023-09-30T05:11:15;11.48;;;5.88;;
16784;SDS011;8509;52.178;5.404;2023-09-30T05:13:40;8.02;;;4.68;;
16784;SDS011;8509;52.178;5.404;2023-09-30T05:16:06;10.38;;;5.97;;
16784;SDS011;8509;52.178;5.404;2023-09-30T05:18:34;9.35;;;5.15;;
16784;SDS011;8509;52.178;5.404;2023-09-30T05:21:00;10.75;;;5.57;;
16784;SDS011;8509;52.178;5.404;2023-09-30T05:23:26;11.85;;;5.90;;
16784;SDS011;8509;52.178;5.404;2023-09-30T05:25:52;10.63;;;5.68;;
16784;SDS011;8509;52.178;5.404;2023-09-30T05:28:19;9.65;;;5.80;;
16784;SDS011;8509;52.178;5.404;2023-09-30T05:30:45;18.50;;;7.68;;
16784;SDS011;8509;52.178;5.404;2023-09-30T05:33:11;15.13;;;4.97;;
16784;SDS011;8509;52.178;5.404;2023-09-30T05:35:40;9.50;;;5.28;;
16784;SDS011;8509;52.178;5.404;2023-09-30T05:38:07;12.98;;;6.45;;
16784;SDS011;8509;52.178;5.404;2023-09-30T05:40:33;10.45;;;5.25;;
16784;SDS011;8509;52.178;5.404;2023-09-30T05:42:59;12.35;;;6.13;;
16784;SDS011;8509;52.178;5.404;2023-09-30T05:45:26;14.18;;;6.30;;
16784;SDS011;8509;52.178;5.404;2023-09-30T05:47:53;11.27;;;5.82;;
16784;SDS011;8509;52.178;5.404;2023-09-30T05:50:20;17.02;;;5.82;;
16784;SDS011;8509;52.178;5.404;2023-09-30T05:52:52;15.70;;;6.18;;
16784;SDS011;8509;52.178;5.404;2023-09-30T05:55:19;16.25;;;5.80;;
16784;SDS011;8509;52.178;5.404;2023-09-30T05:57:46;11.55;;;5.72;;
16784;SDS011;8509;52.178;5.404;2023-09-30T06:00:14;10.27;;;6.05;;
16784;SDS011;8509;52.178;5.404;2023-09-30T06:03:00;14.70;;;6.85;;
16784;SDS011;8509;52.178;5.404;2023-09-30T06:05:26;11.82;;;6.38;;
16784;SDS011;8509;52.178;5.404;2023-09-30T06:07:55;9.90;;;6.00;;
16784;SDS011;8509;52.178;5.404;2023-09-30T06:10:21;13.60;;;6.15;;
16784;SDS011;8509;52.178;5.404;2023-09-30T06:12:47;11.35;;;6.60;;
16784;SDS011;8509;52.178;5.404;2023-09-30T06:15:17;15.45;;;7.85;;
16784;SDS011;8509;52.178;5.404;2023-09-30T06:18:07;13.18;;;7.20;;
16784;SDS011;8509;52.178;5.404;2023-09-30T06:20:39;15.15;;;7.60;;
16784;SDS011;8509;52.178;5.404;2023-09-30T06:23:06;11.98;;;6.85;;
16784;SDS011;8509;52.178;5.404;2023-09-30T06:25:32;15.02;;;7.93;;
16784;SDS011;8509;52.178;5.404;2023-09-30T06:27:57;12.50;;;6.10;;
16784;SDS011;8509;52.178;5.404;2023-09-30T06:30:23;13.38;;;7.00;;
16784;SDS011;8509;52.178;5.404;2023-09-30T06:32:55;14.23;;;7.75;;
16784;SDS011;8509;52.178;5.404;2023-09-30T06:35:25;13.68;;;7.45;;
16784;SDS011;8509;52.178;5.404;2023-09-30T06:37:55;15.88;;;7.45;;
16784;SDS011;8509;52.178;5.404;2023-09-30T06:40:20;17.83;;;7.45;;
16784;SDS011;8509;52.178;5.404;2023-09-30T06:42:47;15.32;;;8.15;;
16784;SDS011;8509;52.178;5.404;2023-09-30T06:45:12;12.68;;;7.65;;
16784;SDS011;8509;52.178;5.404;2023-09-30T06:47:39;13.57;;;6.72;;
16784;SDS011;8509;52.178;5.404;2023-09-30T06:50:12;11.90;;;7.10;;
16784;SDS011;8509;52.178;5.404;2023-09-30T06:52:42;10.35;;;6.50;;
16784;SDS011;8509;52.178;5.404;2023-09-30T06:55:14;15.82;;;8.38;;
16784;SDS011;8509;52.178;5.404;2023-09-30T06:57:42;15.90;;;7.45;;
16784;SDS011;8509;52.178;5.404;2023-09-30T07:00:08;10.70;;;7.57;;
16784;SDS011;8509;52.178;5.404;2023-09-30T07:02:36;11.95;;;6.65;;
16784;SDS011;8509;52.178;5.404;2023-09-30T07:05:09;12.27;;;7.70;;
16784;SDS011;8509;52.178;5.404;2023-09-30T07:07:38;19.60;;;8.38;;
16784;SDS011;8509;52.178;5.404;2023-09-30T07:10:05;11.25;;;6.15;;
16784;SDS011;8509;52.178;5.404;2023-09-30T07:12:31;16.20;;;8.77;;
16784;SDS011;8509;52.178;5.404;2023-09-30T07:15:00;11.43;;;7.72;;
16784;SDS011;8509;52.178;5.404;2023-09-30T07:17:29;14.30;;;7.13;;
16784;SDS011;8509;52.178;5.404;2023-09-30T07:19:55;18.95;;;8.85;;
16784;SDS011;8509;52.178;5.404;2023-09-30T07:22:21;15.93;;;8.48;;
16784;SDS011;8509;52.178;5.404;2023-09-30T07:24:47;14.80;;;8.35;;
16784;SDS011;8509;52.178;5.404;2023-09-30T07:27:13;19.30;;;8.73;;
16784;SDS011;8509;52.178;5.404;2023-09-30T07:29:40;32.65;;;9.52;;
16784;SDS011;8509;52.178;5.404;2023-09-30T07:34:32;13.25;;;7.47;;
16784;SDS011;8509;52.178;5.404;2023-09-30T07:36:57;12.40;;;6.82;;
16784;SDS011;8509;52.178;5.404;2023-09-30T07:39:23;11.98;;;6.55;;
16784;SDS011;8509;52.178;5.404;2023-09-30T07:41:50;13.82;;;6.75;;
16784;SDS011;8509;52.178;5.404;2023-09-30T07:44:16;16.13;;;5.88;;
16784;SDS011;8509;52.178;5.404;2023-09-30T07:46:42;10.40;;;5.93;;
16784;SDS011;8509;52.178;5.404;2023-09-30T07:49:11;9.05;;;5.63;;
16784;SDS011;8509;52.178;5.404;2023-09-30T07:51:36;8.18;;;4.75;;
16784;SDS011;8509;52.178;5.404;2023-09-30T07:54:04;7.38;;;4.68;;
16784;SDS011;8509;52.178;5.404;2023-09-30T07:56:30;5.95;;;4.20;;
16784;SDS011;8509;52.178;5.404;2023-09-30T07:58:56;6.13;;;3.80;;
16784;SDS011;8509;52.178;5.404;2023-09-30T08:01:22;3.97;;;2.53;;
16784;SDS011;8509;52.178;5.404;2023-09-30T08:03:47;5.35;;;3.05;;
16784;SDS011;8509;52.178;5.404;2023-09-30T08:06:13;2.58;;;2.38;;
16784;SDS011;8509;52.178;5.404;2023-09-30T08:08:39;3.85;;;2.03;;
16784;SDS011;8509;52.178;5.404;2023-09-30T08:11:05;3.45;;;2.40;;
16784;SDS011;8509;52.178;5.404;2023-09-30T08:13:32;2.08;;;1.88;;
16784;SDS011;8509;52.178;5.404;2023-09-30T08:16:01;2.85;;;1.85;;
16784;SDS011;8509;52.178;5.404;2023-09-30T08:18:26;2.92;;;2.30;;
16784;SDS011;8509;52.178;5.404;2023-09-30T08:20:52;2.25;;;1.73;;
16784;SDS011;8509;52.178;5.404;2023-09-30T08:23:18;2.30;;;2.05;;
16784;SDS011;8509;52.178;5.404;2023-09-30T08:25:44;2.22;;;1.73;;
16784;SDS011;8509;52.178;5.404;2023-09-30T08:28:09;3.35;;;1.60;;
16784;SDS011;8509;52.178;5.404;2023-09-30T08:30:38;3.45;;;2.42;;
16784;SDS011;8509;52.178;5.404;2023-09-30T08:33:05;2.13;;;1.77;;
16784;SDS011;8509;52.178;5.404;2023-09-30T08:35:36;3.60;;;2.03;;
16784;SDS011;8509;52.178;5.404;2023-09-30T08:38:02;4.32;;;2.00;;
16784;SDS011;8509;52.178;5.404;2023-09-30T08:40:28;3.78;;;2.25;;
16784;SDS011;8509;52.178;5.404;2023-09-30T08:42:54;5.05;;;3.03;;
16784;SDS011;8509;52.178;5.404;2023-09-30T08:45:20;1.70;;;1.27;;
16784;SDS011;8509;52.178;5.404;2023-09-30T08:47:46;2.33;;;1.70;;
16784;SDS011;8509;52.178;5.404;2023-09-30T08:50:12;2.58;;;1.58;;
16784;SDS011;8509;52.178;5.404;2023-09-30T08:52:40;3.83;;;1.77;;
16784;SDS011;8509;52.178;5.404;2023-09-30T08:55:09;2.55;;;2.10;;
16784;SDS011;8509;52.178;5.404;2023-09-30T08:57:38;2.92;;;1.65;;
16784;SDS011;8509;52.178;5.404;2023-09-30T09:00:08;1.73;;;1.63;;
16784;SDS011;8509;52.178;5.404;2023-09-30T09:05:05;1.42;;;1.30;;
16784;SDS011;8509;52.178;5.404;2023-09-30T09:07:31;4.90;;;1.42;;
16784;SDS011;8509;52.178;5.404;2023-09-30T09:10:04;3.67;;;1.33;;
16784;SDS011;8509;52.178;5.404;2023-09-30T09:12:32;5.15;;;2.40;;
16784;SDS011;8509;52.178;5.404;2023-09-30T09:14:59;1.48;;;1.15;;
16784;SDS011;8509;52.178;5.404;2023-09-30T09:17:27;2.58;;;1.40;;
16784;SDS011;8509;52.178;5.404;2023-09-30T09:20:06;1.80;;;1.30;;
16784;SDS011;8509;52.178;5.404;2023-09-30T09:22:41;1.88;;;1.05;;
16784;SDS011;8509;52.178;5.404;2023-09-30T09:25:08;2.88;;;1.45;;
16784;SDS011;8509;52.178;5.404;2023-09-30T09:27:34;1.95;;;1.50;;
16784;SDS011;8509;52.178;5.404;2023-09-30T09:30:20;3.95;;;1.10;;
16784;SDS011;8509;52.178;5.404;2023-09-30T09:33:03;3.30;;;1.85;;
16784;SDS011;8509;52.178;5.404;2023-09-30T09:35:30;0.60;;;0.60;;
16784;SDS011;8509;52.178;5.404;2023-09-30T09:38:01;2.17;;;1.02;;
16784;SDS011;8509;52.178;5.404;2023-09-30T09:40:29;1.60;;;1.33;;
16784;SDS011;8509;52.178;5.404;2023-09-30T09:42:57;1.70;;;1.05;;
16784;SDS011;8509;52.178;5.404;2023-09-30T09:45:25;1.83;;;1.17;;
16784;SDS011;8509;52.178;5.404;2023-09-30T09:47:52;2.00;;;0.93;;
16784;SDS011;8509;52.178;5.404;2023-09-30T09:50:22;3.00;;;0.80;;
16784;SDS011;8509;52.178;5.404;2023-09-30T09:52:48;1.33;;;0.80;;
16784;SDS011;8509;52.178;5.404;2023-09-30T09:55:16;0.75;;;0.63;;
16784;SDS011;8509;52.178;5.404;2023-09-30T09:57:43;1.38;;;0.73;;
16784;SDS011;8509;52.178;5.404;2023-09-30T10:00:15;2.95;;;0.95;;
16784;SDS011;8509;52.178;5.404;2023-09-30T10:02:44;3.30;;;1.13;;
16784;SDS011;8509;52.178;5.404;2023-09-30T10:05:11;0.60;;;0.60;;
16784;SDS011;8509;52.178;5.404;2023-09-30T10:07:38;1.02;;;0.85;;
16784;SDS011;8509;52.178;5.404;2023-09-30T10:10:14;0.95;;;0.68;;
16784;SDS011;8509;52.178;5.404;2023-09-30T10:12:42;0.95;;;0.90;;
16784;SDS011;8509;52.178;5.404;2023-09-30T10:18:10;1.75;;;1.10;;
16784;SDS011;8509;52.178;5.404;2023-09-30T10:20:37;2.28;;;0.63;;
16784;SDS011;8509;52.178;5.404;2023-09-30T10:23:25;2.60;;;1.20;;
16784;SDS011;8509;52.178;5.404;2023-09-30T10:26:13;1.75;;;1.08;;
16784;SDS011;8509;52.178;5.404;2023-09-30T10:28:43;1.08;;;0.75;;
16784;SDS011;8509;52.178;5.404;2023-09-30T10:31:19;0.82;;;0.77;;
16784;SDS011;8509;52.178;5.404;2023-09-30T10:36:30;1.08;;;0.47;;
16784;SDS011;8509;52.178;5.404;2023-09-30T10:39:05;0.88;;;0.77;;
16784;SDS011;8509;52.178;5.404;2023-09-30T10:46:58;0.65;;;0.50;;
16784;SDS011;8509;52.178;5.404;2023-09-30T10:51:56;1.50;;;1.13;;
16784;SDS011;8509;52.178;5.404;2023-09-30T10:54:25;10.27;;;1.33;;
16784;SDS011;8509;52.178;5.404;2023-09-30T10:56:52;2.92;;;1.17;;
16784;SDS011;8509;52.178;5.404;2023-09-30T10:59:19;1.95;;;1.38;;
16784;SDS011;8509;52.178;5.404;2023-09-30T11:01:48;0.43;;;0.40;;
16784;SDS011;8509;52.178;5.404;2023-09-30T11:04:14;0.95;;;0.88;;
16784;SDS011;8509;52.178;5.404;2023-09-30T11:06:41;1.05;;;0.80;;
16784;SDS011;8509;52.178;5.404;2023-09-30T11:09:07;1.10;;;0.90;;
16784;SDS011;8509;52.178;5.404;2023-09-30T11:11:40;0.70;;;0.70;;
16784;SDS011;8509;52.178;5.404;2023-09-30T11:16:59;2.42;;;1.08;;
16784;SDS011;8509;52.178;5.404;2023-09-30T11:19:27;2.25;;;1.15;;
16784;SDS011;8509;52.178;5.404;2023-09-30T11:22:10;0.75;;;0.60;;
16784;SDS011;8509;52.178;5.404;2023-09-30T11:24:36;1.23;;;0.90;;
16784;SDS011;8509;52.178;5.404;2023-09-30T11:27:02;0.57;;;0.47;;
16784;SDS011;8509;52.178;5.404;2023-09-30T11:29:29;1.17;;;0.93;;
16784;SDS011;8509;52.178;5.404;2023-09-30T11:31:54;1.27;;;1.02;;
16784;SDS011;8509;52.178;5.404;2023-09-30T11:34:31;1.40;;;0.80;;
16784;SDS011;8509;52.178;5.404;2023-09-30T11:37:01;0.70;;;0.68;;
16784;SDS011;8509;52.178;5.404;2023-09-30T11:39:27;0.63;;;0.40;;
16784;SDS011;8509;52.178;5.404;2023-09-30T11:41:57;0.40;;;0.35;;
16784;SDS011;8509;52.178;5.404;2023-09-30T11:44:23;0.50;;;0.50;;
16784;SDS011;8509;52.178;5.404;2023-09-30T11:52:25;1.60;;;0.77;;
16784;SDS011;8509;52.178;5.404;2023-09-30T11:54:51;3.55;;;0.90;;
16784;SDS011;8509;52.178;5.404;2023-09-30T11:57:18;1.40;;;0.60;;
16784;SDS011;8509;52.178;5.404;2023-09-30T11:59:44;1.55;;;0.80;;
16784;SDS011;8509;52.178;5.404;2023-09-30T12:02:11;2.90;;;1.05;;
16784;SDS011;8509;52.178;5.404;2023-09-30T12:04:38;0.88;;;0.60;;
16784;SDS011;8509;52.178;5.404;2023-09-30T12:07:03;1.23;;;0.63;;
16784;SDS011;8509;52.178;5.404;2023-09-30T12:09:32;0.73;;;0.70;;
16784;SDS011;8509;52.178;5.404;2023-09-30T12:12:00;1.83;;;0.73;;
16784;SDS011;8509;52.178;5.404;2023-09-30T12:14:26;1.65;;;1.20;;
16784;SDS011;8509;52.178;5.404;2023-09-30T12:16:51;1.38;;;1.15;;
16784;SDS011;8509;52.178;5.404;2023-09-30T12:19:17;1.25;;;0.82;;
16784;SDS011;8509;52.178;5.404;2023-09-30T12:21:43;1.65;;;1.08;;
16784;SDS011;8509;52.178;5.404;2023-09-30T12:24:16;0.77;;;0.57;;
16784;SDS011;8509;52.178;5.404;2023-09-30T12:26:44;0.87;;;0.83;;
16784;SDS011;8509;52.178;5.404;2023-09-30T12:29:16;0.52;;;0.52;;
16784;SDS011;8509;52.178;5.404;2023-09-30T12:31:46;1.13;;;0.68;;
16784;SDS011;8509;52.178;5.404;2023-09-30T12:34:16;0.43;;;0.43;;
16784;SDS011;8509;52.178;5.404;2023-09-30T12:36:42;1.85;;;1.13;;
16784;SDS011;8509;52.178;5.404;2023-09-30T12:39:08;1.90;;;0.73;;
16784;SDS011;8509;52.178;5.404;2023-09-30T12:41:41;1.85;;;0.75;;
16784;SDS011;8509;52.178;5.404;2023-09-30T12:44:08;2.08;;;0.95;;
16784;SDS011;8509;52.178;5.404;2023-09-30T12:46:34;1.00;;;0.73;;
16784;SDS011;8509;52.178;5.404;2023-09-30T12:49:02;0.80;;;0.60;;
16784;SDS011;8509;52.178;5.404;2023-09-30T12:51:31;1.27;;;0.60;;
16784;SDS011;8509;52.178;5.404;2023-09-30T12:53:58;2.05;;;0.95;;
16784;SDS011;8509;52.178;5.404;2023-09-30T12:56:24;0.80;;;0.80;;
16784;SDS011;8509;52.178;5.404;2023-09-30T12:58:50;1.50;;;0.80;;
16784;SDS011;8509;52.178;5.404;2023-09-30T13:01:16;0.75;;;0.73;;
16784;SDS011;8509;52.178;5.404;2023-09-30T13:03:46;2.00;;;0.70;;
16784;SDS011;8509;52.178;5.404;2023-09-30T13:06:12;0.93;;;0.77;;
16784;SDS011;8509;52.178;5.404;2023-09-30T13:08:39;0.73;;;0.60;;
16784;SDS011;8509;52.178;5.404;2023-09-30T13:11:04;1.45;;;0.55;;
16784;SDS011;8509;52.178;5.404;2023-09-30T13:13:31;1.23;;;0.68;;
16784;SDS011;8509;52.178;5.404;2023-09-30T13:16:01;1.27;;;0.57;;
16784;SDS011;8509;52.178;5.404;2023-09-30T13:18:30;1.42;;;0.68;;
16784;SDS011;8509;52.178;5.404;2023-09-30T13:20:56;1.55;;;0.70;;
16784;SDS011;8509;52.178;5.404;2023-09-30T13:23:22;1.40;;;1.00;;
16784;SDS011;8509;52.178;5.404;2023-09-30T13:25:47;1.10;;;0.80;;
16784;SDS011;8509;52.178;5.404;2023-09-30T13:28:13;1.80;;;1.00;;
16784;SDS011;8509;52.178;5.404;2023-09-30T13:30:39;1.08;;;0.52;;
16784;SDS011;8509;52.178;5.404;2023-09-30T13:33:05;0.50;;;0.50;;
16784;SDS011;8509;52.178;5.404;2023-09-30T13:35:31;0.60;;;0.60;;
16784;SDS011;8509;52.178;5.404;2023-09-30T13:37:57;0.55;;;0.50;;
16784;SDS011;8509;52.178;5.404;2023-09-30T13:40:23;1.42;;;1.27;;
16784;SDS011;8509;52.178;5.404;2023-09-30T13:42:48;0.45;;;0.40;;
16784;SDS011;8509;52.178;5.404;2023-09-30T13:45:14;0.73;;;0.68;;
16784;SDS011;8509;52.178;5.404;2023-09-30T13:47:42;1.13;;;0.80;;
16784;SDS011;8509;52.178;5.404;2023-09-30T13:50:08;1.08;;;0.90;;
16784;SDS011;8509;52.178;5.404;2023-09-30T13:52:35;1.10;;;0.80;;
16784;SDS011;8509;52.178;5.404;2023-09-30T13:55:01;1.92;;;0.98;;
16784;SDS011;8509;52.178;5.404;2023-09-30T13:57:28;0.50;;;0.50;;
16784;SDS011;8509;52.178;5.404;2023-09-30T13:59:56;0.50;;;0.43;;
16784;SDS011;8509;52.178;5.404;2023-09-30T14:02:22;0.40;;;0.40;;
16784;SDS011;8509;52.178;5.404;2023-09-30T14:04:48;1.30;;;0.70;;
16784;SDS011;8509;52.178;5.404;2023-09-30T14:07:15;1.08;;;0.80;;
16784;SDS011;8509;52.178;5.404;2023-09-30T14:09:44;0.52;;;0.52;;
16784;SDS011;8509;52.178;5.404;2023-09-30T14:12:09;1.92;;;0.68;;
16784;SDS011;8509;52.178;5.404;2023-09-30T14:14:35;1.17;;;0.95;;
16784;SDS011;8509;52.178;5.404;2023-09-30T14:17:01;3.47;;;0.77;;
16784;SDS011;8509;52.178;5.404;2023-09-30T14:19:35;1.08;;;0.70;;
16784;SDS011;8509;52.178;5.404;2023-09-30T14:22:02;3.75;;;1.17;;
16784;SDS011;8509;52.178;5.404;2023-09-30T14:24:29;0.95;;;0.68;;
16784;SDS011;8509;52.178;5.404;2023-09-30T14:26:56;0.98;;;0.80;;
16784;SDS011;8509;52.178;5.404;2023-09-30T14:29:21;1.42;;;0.73;;
16784;SDS011;8509;52.178;5.404;2023-09-30T14:31:47;0.73;;;0.65;;
16784;SDS011;8509;52.178;5.404;2023-09-30T14:34:12;1.92;;;1.30;;
16784;SDS011;8509;52.178;5.404;2023-09-30T14:36:40;2.63;;;0.90;;
16784;SDS011;8509;52.178;5.404;2023-09-30T14:39:05;2.80;;;1.15;;
16784;SDS011;8509;52.178;5.404;2023-09-30T14:41:31;2.25;;;1.00;;
16784;SDS011;8509;52.178;5.404;2023-09-30T14:43:58;0.40;;;0.40;;
16784;SDS011;8509;52.178;5.404;2023-09-30T14:46:23;2.63;;;0.90;;
16784;SDS011;8509;52.178;5.404;2023-09-30T14:48:49;1.85;;;0.98;;
16784;SDS011;8509;52.178;5.404;2023-09-30T14:51:15;1.77;;;1.45;;
16784;SDS011;8509;52.178;5.404;2023-09-30T14:53:40;2.10;;;1.33;;
16784;SDS011;8509;52.178;5.404;2023-09-30T14:56:14;1.33;;;0.70;;
16784;SDS011;8509;52.178;5.404;2023-09-30T14:58:41;0.63;;;0.60;;
16784;SDS011;8509;52.178;5.404;2023-09-30T15:01:09;0.77;;;0.63;;
16784;SDS011;8509;52.178;5.404;2023-09-30T15:03:36;0.70;;;0.70;;
16784;SDS011;8509;52.178;5.404;2023-09-30T15:06:04;1.95;;;1.00;;
16784;SDS011;8509;52.178;5.404;2023-09-30T15:08:30;1.27;;;0.52;;
16784;SDS011;8509;52.178;5.404;2023-09-30T15:10:57;1.60;;;1.15;;
16784;SDS011;8509;52.178;5.404;2023-09-30T15:13:24;3.65;;;1.88;;
16784;SDS011;8509;52.178;5.404;2023-09-30T15:15:50;0.70;;;0.70;;
16784;SDS011;8509;52.178;5.404;2023-09-30T15:18:15;1.17;;;0.80;;
16784;SDS011;8509;52.178;5.404;2023-09-30T15:20:41;0.70;;;0.57;;
16784;SDS011;8509;52.178;5.404;2023-09-30T15:23:07;0.50;;;0.50;;
16784;SDS011;8509;52.178;5.404;2023-09-30T15:25:32;2.20;;;1.08;;